sensor_id;sensor_type;location;lat;lon;timestamp;pressure;altitude;pressure_sealevel;temperature;humidity
48872;BME280;36154;51.674;7.824;2023-02-28T00:01:26;102241.31;;;19.74;44.53
48872;BME280;36154;51.674;7.824;2023-02-28T00:03:51;102243.06;;;19.73;44.42
48872;BME280;36154;51.674;7.824;2023-02-28T00:06:16;102242.16;;;19.73;44.41
48872;BME280;36154;51.674;7.824;2023-02-28T00:08:42;102247.34;;;19.73;44.46
48872;BME280;36154;51.674;7.824;2023-02-28T00:11:12;102234.44;;;19.71;44.60
48872;BME280;36154;51.674;7.824;2023-02-28T00:13:40;102232.72;;;19.72;44.60
48872;BME280;36154;51.674;7.824;2023-02-28T00:16:11;102239.63;;;19.71;44.51
48872;BME280;36154;51.674;7.824;2023-02-28T00:18:38;102237.88;;;19.72;44.41
48872;BME280;36154;51.674;7.824;2023-02-28T00:21:04;102236.16;;;19.71;44.52
48872;BME280;36154;51.674;7.824;2023-02-28T00:23:30;102235.28;;;19.70;44.33
48872;BME280;36154;51.674;7.824;2023-02-28T00:25:55;102238.72;;;19.71;44.40
48872;BME280;36154;51.674;7.824;2023-02-28T00:28:21;102230.97;;;19.69;44.63
48872;BME280;36154;51.674;7.824;2023-02-28T00:30:46;102228.41;;;19.65;44.72
48872;BME280;36154;51.674;7.824;2023-02-28T00:33:12;102230.97;;;19.68;44.61
48872;BME280;36154;51.674;7.824;2023-02-28T00:35:37;102232.69;;;19.69;44.56
48872;BME280;36154;51.674;7.824;2023-02-28T00:38:03;102235.28;;;19.69;44.56
48872;BME280;36154;51.674;7.824;2023-02-28T00:40:28;102232.69;;;19.69;44.31
48872;BME280;36154;51.674;7.824;2023-02-28T00:42:53;102234.44;;;19.68;44.57
48872;BME280;36154;51.674;7.824;2023-02-28T00:45:19;102228.38;;;19.68;44.52
48872;BME280;36154;51.674;7.824;2023-02-28T00:47:44;102228.41;;;19.65;44.48
48872;BME280;36154;51.674;7.824;2023-02-28T00:50:13;102226.69;;;19.67;44.56
48872;BME280;36154;51.674;7.824;2023-02-28T00:52:39;102228.38;;;19.68;44.34
48872;BME280;36154;51.674;7.824;2023-02-28T00:55:04;102224.09;;;19.67;44.56
48872;BME280;36154;51.674;7.824;2023-02-28T00:57:30;102225.81;;;19.66;44.55
48872;BME280;36154;51.674;7.824;2023-02-28T00:59:55;102227.53;;;19.66;44.46
48872;BME280;36154;51.674;7.824;2023-02-28T01:02:22;102218.06;;;19.66;44.56
48872;BME280;36154;51.674;7.824;2023-02-28T01:04:47;102224.09;;;19.67;44.54
48872;BME280;36154;51.674;7.824;2023-02-28T01:07:12;102224.09;;;19.65;44.31
48872;BME280;36154;51.674;7.824;2023-02-28T01:09:39;102224.94;;;19.66;44.43
48872;BME280;36154;51.674;7.824;2023-02-28T01:12:05;102224.94;;;19.66;44.35
48872;BME280;36154;51.674;7.824;2023-02-28T01:14:31;102229.25;;;19.65;44.40
48872;BME280;36154;51.674;7.824;2023-02-28T01:16:56;102233.56;;;19.65;44.50
48872;BME280;36154;51.674;7.824;2023-02-28T01:19:21;102235.28;;;19.64;44.52
48872;BME280;36154;51.674;7.824;2023-02-28T01:21:47;102229.25;;;19.64;44.39
48872;BME280;36154;51.674;7.824;2023-02-28T01:24:12;102226.66;;;19.64;44.35
48872;BME280;36154;51.674;7.824;2023-02-28T01:26:37;102234.44;;;19.64;44.56
48872;BME280;36154;51.674;7.824;2023-02-28T01:29:02;102229.22;;;19.62;44.60
48872;BME280;36154;51.674;7.824;2023-02-28T01:31:28;102238.72;;;19.62;44.56
48872;BME280;36154;51.674;7.824;2023-02-28T01:33:53;102231.00;;;19.63;44.45
48872;BME280;36154;51.674;7.824;2023-02-28T01:36:21;102230.09;;;19.63;44.34
48872;BME280;36154;51.674;7.824;2023-02-28T01:38:47;102233.53;;;19.62;44.45
48872;BME280;36154;51.674;7.824;2023-02-28T01:41:19;102230.09;;;19.63;44.56
48872;BME280;36154;51.674;7.824;2023-02-28T01:46:11;102229.22;;;19.62;44.35
48872;BME280;36154;51.674;7.824;2023-02-28T01:48:40;102231.81;;;19.62;44.52
48872;BME280;36154;51.674;7.824;2023-02-28T01:51:13;102225.78;;;19.62;44.57
48872;BME280;36154;51.674;7.824;2023-02-28T01:53:46;102224.03;;;19.62;44.54
48872;BME280;36154;51.674;7.824;2023-02-28T01:56:13;102227.47;;;19.61;44.44
48872;BME280;36154;51.674;7.824;2023-02-28T01:58:46;102231.81;;;19.61;44.37
48872;BME280;36154;51.674;7.824;2023-02-28T02:01:12;102227.50;;;19.60;44.36
48872;BME280;36154;51.674;7.824;2023-02-28T02:04:01;102230.09;;;19.60;44.73
48872;BME280;36154;51.674;7.824;2023-02-28T02:06:34;102227.50;;;19.60;44.38
48872;BME280;36154;51.674;7.824;2023-02-28T02:09:00;102224.03;;;19.59;44.27
48872;BME280;36154;51.674;7.824;2023-02-28T02:11:26;102218.03;;;19.58;44.50
48872;BME280;36154;51.674;7.824;2023-02-28T02:23:01;102211.09;;;19.57;44.46
48872;BME280;36154;51.674;7.824;2023-02-28T02:26:03;102218.00;;;19.55;44.51
48872;BME280;36154;51.674;7.824;2023-02-28T02:29:00;102216.28;;;19.54;44.36
48872;BME280;36154;51.674;7.824;2023-02-28T02:31:53;102208.53;;;19.53;44.40
48872;BME280;36154;51.674;7.824;2023-02-28T02:38:02;102215.41;;;19.52;44.39
48872;BME280;36154;51.674;7.824;2023-02-28T02:40:39;102207.66;;;19.52;44.36
48872;BME280;36154;51.674;7.824;2023-02-28T02:43:20;102202.50;;;19.51;44.51
48872;BME280;36154;51.674;7.824;2023-02-28T02:45:52;102204.22;;;19.52;44.50
48872;BME280;36154;51.674;7.824;2023-02-28T02:48:23;102210.25;;;19.52;44.51
48872;BME280;36154;51.674;7.824;2023-02-28T02:50:54;102200.78;;;19.50;44.36
48872;BME280;36154;51.674;7.824;2023-02-28T02:53:25;102205.06;;;19.52;44.26
48872;BME280;36154;51.674;7.824;2023-02-28T02:55:53;102205.97;;;19.53;44.46
48872;BME280;36154;51.674;7.824;2023-02-28T02:58:22;102206.81;;;19.52;44.33
48872;BME280;36154;51.674;7.824;2023-02-28T03:00:52;102201.63;;;19.52;44.34
48872;BME280;36154;51.674;7.824;2023-02-28T03:03:19;102201.63;;;19.52;44.64
48872;BME280;36154;51.674;7.824;2023-02-28T03:05:55;102201.63;;;19.50;44.33
48872;BME280;36154;51.674;7.824;2023-02-28T03:08:22;102207.66;;;19.51;44.56
48872;BME280;36154;51.674;7.824;2023-02-28T03:10:52;102200.78;;;19.51;44.29
48872;BME280;36154;51.674;7.824;2023-02-28T03:13:54;102209.38;;;19.50;44.46
48872;BME280;36154;51.674;7.824;2023-02-28T03:21:43;102202.47;;;19.49;44.34
48872;BME280;36154;51.674;7.824;2023-02-28T03:24:18;102204.22;;;19.50;44.34
48872;BME280;36154;51.674;7.824;2023-02-28T03:26:56;102203.38;;;19.50;44.43
48872;BME280;36154;51.674;7.824;2023-02-28T03:29:35;102199.91;;;19.49;44.28
48872;BME280;36154;51.674;7.824;2023-02-28T03:32:13;102212.81;;;19.49;44.34
48872;BME280;36154;51.674;7.824;2023-02-28T03:34:50;102212.81;;;19.49;44.29
48872;BME280;36154;51.674;7.824;2023-02-28T03:37:22;102211.13;;;19.48;44.50
48872;BME280;36154;51.674;7.824;2023-02-28T03:39:55;102211.97;;;19.49;44.43
48872;BME280;36154;51.674;7.824;2023-02-28T03:42:27;102215.41;;;19.48;44.47
48872;BME280;36154;51.674;7.824;2023-02-28T03:45:05;102214.56;;;19.47;44.48
48872;BME280;36154;51.674;7.824;2023-02-28T03:47:40;102213.72;;;19.48;43.97
48872;BME280;36154;51.674;7.824;2023-02-28T03:50:14;102220.56;;;19.48;44.43
48872;BME280;36154;51.674;7.824;2023-02-28T03:52:48;102219.72;;;19.47;44.40
48872;BME280;36154;51.674;7.824;2023-02-28T03:55:16;102214.56;;;19.47;44.39
48872;BME280;36154;51.674;7.824;2023-02-28T04:00:48;102218.03;;;19.46;44.37
48872;BME280;36154;51.674;7.824;2023-02-28T04:03:14;102211.97;;;19.46;44.15
48872;BME280;36154;51.674;7.824;2023-02-28T04:06:07;102216.28;;;19.45;44.41
48872;BME280;36154;51.674;7.824;2023-02-28T04:08:37;102216.28;;;19.47;44.24
48872;BME280;36154;51.674;7.824;2023-02-28T04:11:17;102212.81;;;19.49;44.19
48872;BME280;36154;51.674;7.824;2023-02-28T04:13:43;102221.47;;;19.51;44.27
48872;BME280;36154;51.674;7.824;2023-02-28T04:16:09;102212.84;;;19.55;44.26
48872;BME280;36154;51.674;7.824;2023-02-28T04:18:43;102210.25;;;19.58;44.39
48872;BME280;36154;51.674;7.824;2023-02-28T04:21:10;102218.06;;;19.65;44.31
48872;BME280;36154;51.674;7.824;2023-02-28T04:23:36;102222.34;;;19.67;44.39
48872;BME280;36154;51.674;7.824;2023-02-28T04:26:01;102222.38;;;19.72;44.27
48872;BME280;36154;51.674;7.824;2023-02-28T04:28:26;102230.13;;;19.75;44.45
48872;BME280;36154;51.674;7.824;2023-02-28T04:31:00;102219.78;;;19.78;44.50
48872;BME280;36154;51.674;7.824;2023-02-28T04:33:27;102228.41;;;19.83;44.29
48872;BME280;36154;51.674;7.824;2023-02-28T04:38:25;102226.69;;;19.88;44.15
48872;BME280;36154;51.674;7.824;2023-02-28T04:40:50;102228.38;;;19.92;44.13
48872;BME280;36154;51.674;7.824;2023-02-28T04:43:15;102223.22;;;19.96;43.96
48872;BME280;36154;51.674;7.824;2023-02-28T04:45:41;102218.91;;;19.98;44.14
48872;BME280;36154;51.674;7.824;2023-02-28T04:48:06;102219.75;;;20.00;44.06
48872;BME280;36154;51.674;7.824;2023-02-28T04:50:31;102224.91;;;20.03;43.92
48872;BME280;36154;51.674;7.824;2023-02-28T04:52:56;102225.78;;;20.06;43.91
48872;BME280;36154;51.674;7.824;2023-02-28T04:55:22;102230.09;;;20.07;43.84
48872;BME280;36154;51.674;7.824;2023-02-28T04:57:47;102225.78;;;20.09;43.88
48872;BME280;36154;51.674;7.824;2023-02-28T05:00:13;102223.19;;;20.09;43.88
48872;BME280;36154;51.674;7.824;2023-02-28T05:02:41;102228.38;;;20.14;43.96
48872;BME280;36154;51.674;7.824;2023-02-28T05:05:07;102226.63;;;20.16;43.84
48872;BME280;36154;51.674;7.824;2023-02-28T05:07:32;102230.94;;;20.19;43.78
48872;BME280;36154;51.674;7.824;2023-02-28T05:09:57;102223.19;;;20.20;43.88
48872;BME280;36154;51.674;7.824;2023-02-28T05:12:25;102228.38;;;20.20;43.83
48872;BME280;36154;51.674;7.824;2023-02-28T05:14:50;102226.63;;;20.22;43.44
48872;BME280;36154;51.674;7.824;2023-02-28T05:17:16;102211.94;;;20.18;43.89
48872;BME280;36154;51.674;7.824;2023-02-28T05:19:41;102227.47;;;20.24;43.56
48872;BME280;36154;51.674;7.824;2023-02-28T05:22:13;102230.91;;;20.25;43.61
48872;BME280;36154;51.674;7.824;2023-02-28T05:24:40;102230.06;;;20.24;43.77
48872;BME280;36154;51.674;7.824;2023-02-28T05:27:05;102231.81;;;20.24;43.58
48872;BME280;36154;51.674;7.824;2023-02-28T05:29:30;102230.91;;;20.25;43.57
48872;BME280;36154;51.674;7.824;2023-02-28T05:31:55;102235.25;;;20.24;43.38
48872;BME280;36154;51.674;7.824;2023-02-28T05:34:21;102237.84;;;20.24;43.43
48872;BME280;36154;51.674;7.824;2023-02-28T05:36:46;102239.56;;;20.24;43.55
48872;BME280;36154;51.674;7.824;2023-02-28T05:39:11;102239.56;;;20.24;43.65
48872;BME280;36154;51.674;7.824;2023-02-28T05:41:39;102236.13;;;20.22;43.65
48872;BME280;36154;51.674;7.824;2023-02-28T05:44:04;102240.41;;;20.21;43.45
48872;BME280;36154;51.674;7.824;2023-02-28T05:46:30;102243.91;;;20.20;43.56
48872;BME280;36154;51.674;7.824;2023-02-28T05:48:55;102242.16;;;20.19;43.55
48872;BME280;36154;51.674;7.824;2023-02-28T05:51:22;102242.16;;;20.19;43.95
48872;BME280;36154;51.674;7.824;2023-02-28T05:53:48;102249.06;;;20.17;43.69
48872;BME280;36154;51.674;7.824;2023-02-28T05:56:14;102247.34;;;20.18;43.51
48872;BME280;36154;51.674;7.824;2023-02-28T05:58:39;102244.75;;;20.16;43.70
48872;BME280;36154;51.674;7.824;2023-02-28T06:01:30;102249.91;;;20.15;43.47
48872;BME280;36154;51.674;7.824;2023-02-28T06:03:56;102259.41;;;20.14;43.60
48872;BME280;36154;51.674;7.824;2023-02-28T06:06:21;102247.34;;;20.13;43.57
48872;BME280;36154;51.674;7.824;2023-02-28T06:08:47;102252.50;;;20.13;43.36
48872;BME280;36154;51.674;7.824;2023-02-28T06:11:12;102248.22;;;20.10;43.67
48872;BME280;36154;51.674;7.824;2023-02-28T06:13:38;102243.91;;;20.11;43.33
48872;BME280;36154;51.674;7.824;2023-02-28T06:16:03;102259.41;;;20.11;43.46
48872;BME280;36154;51.674;7.824;2023-02-28T06:18:29;102259.41;;;20.09;43.45
48872;BME280;36154;51.674;7.824;2023-02-28T06:20:54;102261.16;;;20.09;43.07
48872;BME280;36154;51.674;7.824;2023-02-28T06:23:21;102259.41;;;20.08;43.01
48872;BME280;36154;51.674;7.824;2023-02-28T06:25:47;102260.31;;;20.07;43.46
48872;BME280;36154;51.674;7.824;2023-02-28T06:28:12;102260.28;;;20.04;43.41
48872;BME280;36154;51.674;7.824;2023-02-28T06:30:38;102259.44;;;20.02;43.26
48872;BME280;36154;51.674;7.824;2023-02-28T06:33:04;102268.91;;;20.04;43.32
48872;BME280;36154;51.674;7.824;2023-02-28T06:35:29;102262.03;;;20.03;43.22
48872;BME280;36154;51.674;7.824;2023-02-28T06:37:55;102271.50;;;20.03;43.24
48872;BME280;36154;51.674;7.824;2023-02-28T06:40:20;102270.66;;;20.02;43.32
48872;BME280;36154;51.674;7.824;2023-02-28T06:42:45;102270.63;;;20.01;43.23
48872;BME280;36154;51.674;7.824;2023-02-28T06:45:11;102268.06;;;20.01;43.43
48872;BME280;36154;51.674;7.824;2023-02-28T06:47:38;102270.63;;;20.01;43.27
48872;BME280;36154;51.674;7.824;2023-02-28T06:50:05;102272.38;;;20.00;43.44
48872;BME280;36154;51.674;7.824;2023-02-28T06:52:31;102277.56;;;20.00;43.35
48872;BME280;36154;51.674;7.824;2023-02-28T06:54:56;102277.56;;;19.99;43.38
48872;BME280;36154;51.674;7.824;2023-02-28T06:57:32;102272.38;;;19.97;43.31
48872;BME280;36154;51.674;7.824;2023-02-28T06:59:59;102273.22;;;19.98;43.36
48872;BME280;36154;51.674;7.824;2023-02-28T07:02:24;102280.13;;;19.99;43.18
48872;BME280;36154;51.674;7.824;2023-02-28T07:04:50;102283.56;;;19.98;43.43
48872;BME280;36154;51.674;7.824;2023-02-28T07:07:15;102285.31;;;19.97;43.42
48872;BME280;36154;51.674;7.824;2023-02-28T07:09:40;102287.91;;;19.97;43.41
48872;BME280;36154;51.674;7.824;2023-02-28T07:12:06;102278.38;;;19.93;43.32
48872;BME280;36154;51.674;7.824;2023-02-28T07:14:31;102294.81;;;19.95;43.32
48872;BME280;36154;51.674;7.824;2023-02-28T07:16:56;102299.09;;;19.94;43.17
48872;BME280;36154;51.674;7.824;2023-02-28T07:19:22;102289.63;;;19.93;43.02
48872;BME280;36154;51.674;7.824;2023-02-28T07:21:47;102298.25;;;19.94;43.09
48872;BME280;36154;51.674;7.824;2023-02-28T07:24:15;102300.81;;;19.92;43.15
48872;BME280;36154;51.674;7.824;2023-02-28T07:26:43;102301.69;;;19.93;43.15
48872;BME280;36154;51.674;7.824;2023-02-28T07:29:10;102303.41;;;19.92;42.88
48872;BME280;36154;51.674;7.824;2023-02-28T07:31:36;102304.28;;;19.91;43.26
48872;BME280;36154;51.674;7.824;2023-02-28T07:34:01;102304.28;;;19.91;43.15
48872;BME280;36154;51.674;7.824;2023-02-28T07:36:28;102310.31;;;19.92;42.93
48872;BME280;36154;51.674;7.824;2023-02-28T07:38:53;102309.47;;;19.91;42.99
48872;BME280;36154;51.674;7.824;2023-02-28T07:41:21;102295.66;;;19.92;42.92
48872;BME280;36154;51.674;7.824;2023-02-28T07:43:46;102303.41;;;19.92;43.07
48872;BME280;36154;51.674;7.824;2023-02-28T07:46:14;102299.97;;;19.92;42.97
48872;BME280;36154;51.674;7.824;2023-02-28T07:48:40;102300.81;;;19.91;42.99
48872;BME280;36154;51.674;7.824;2023-02-28T07:51:06;102294.78;;;19.89;42.83
48872;BME280;36154;51.674;7.824;2023-02-28T07:53:31;102301.69;;;19.91;42.78
48872;BME280;36154;51.674;7.824;2023-02-28T07:55:58;102304.28;;;19.91;42.81
48872;BME280;36154;51.674;7.824;2023-02-28T07:58:24;102305.13;;;19.90;42.85
48872;BME280;36154;51.674;7.824;2023-02-28T08:00:50;102299.97;;;19.89;42.97
48872;BME280;36154;51.674;7.824;2023-02-28T08:03:17;102312.03;;;19.90;42.93
48872;BME280;36154;51.674;7.824;2023-02-28T08:05:43;102311.16;;;19.89;42.77
48872;BME280;36154;51.674;7.824;2023-02-28T08:08:08;102316.34;;;19.89;42.70
48872;BME280;36154;51.674;7.824;2023-02-28T08:10:34;102305.97;;;19.86;42.73
48872;BME280;36154;51.674;7.824;2023-02-28T08:12:59;102306.00;;;19.92;42.87
48872;BME280;36154;51.674;7.824;2023-02-28T08:15:25;102318.09;;;19.97;42.99
48872;BME280;36154;51.674;7.824;2023-02-28T08:17:51;102313.78;;;20.00;42.93
48872;BME280;36154;51.674;7.824;2023-02-28T08:20:16;102307.72;;;20.03;43.35
48872;BME280;36154;51.674;7.824;2023-02-28T08:22:41;102316.34;;;20.08;43.19
48872;BME280;36154;51.674;7.824;2023-02-28T08:25:07;102312.91;;;20.10;43.24
48872;BME280;36154;51.674;7.824;2023-02-28T08:27:33;102313.75;;;20.12;43.09
48872;BME280;36154;51.674;7.824;2023-02-28T08:29:58;102316.34;;;20.14;43.15
48872;BME280;36154;51.674;7.824;2023-02-28T08:32:24;102319.78;;;20.16;43.11
48872;BME280;36154;51.674;7.824;2023-02-28T08:34:49;102323.25;;;20.18;43.21
48872;BME280;36154;51.674;7.824;2023-02-28T08:37:15;102320.66;;;20.20;42.99
48872;BME280;36154;51.674;7.824;2023-02-28T08:39:40;102326.72;;;20.23;42.94
48872;BME280;36154;51.674;7.824;2023-02-28T08:42:05;102312.91;;;20.24;43.08
48872;BME280;36154;51.674;7.824;2023-02-28T08:44:31;102322.41;;;20.27;43.06
48872;BME280;36154;51.674;7.824;2023-02-28T08:46:56;102312.91;;;20.27;43.14
48872;BME280;36154;51.674;7.824;2023-02-28T08:49:21;102312.03;;;20.28;43.06
48872;BME280;36154;51.674;7.824;2023-02-28T08:51:46;102312.03;;;20.30;43.06
48872;BME280;36154;51.674;7.824;2023-02-28T08:54:12;102310.31;;;20.32;42.94
48872;BME280;36154;51.674;7.824;2023-02-28T08:56:40;102306.00;;;20.33;42.91
48872;BME280;36154;51.674;7.824;2023-02-28T08:59:08;102312.00;;;20.33;43.13
48872;BME280;36154;51.674;7.824;2023-02-28T09:01:33;102302.53;;;20.34;43.17
48872;BME280;36154;51.674;7.824;2023-02-28T09:03:59;102303.41;;;20.33;43.35
48872;BME280;36154;51.674;7.824;2023-02-28T09:06:26;102308.56;;;20.34;43.36
48872;BME280;36154;51.674;7.824;2023-02-28T09:08:51;102302.53;;;20.34;43.35
48872;BME280;36154;51.674;7.824;2023-02-28T09:11:17;102306.84;;;20.33;43.40
48872;BME280;36154;51.674;7.824;2023-02-28T09:13:44;102302.53;;;20.34;43.40
48872;BME280;36154;51.674;7.824;2023-02-28T09:16:11;102296.47;;;20.33;43.27
48872;BME280;36154;51.674;7.824;2023-02-28T09:18:38;102298.22;;;20.33;43.13
48872;BME280;36154;51.674;7.824;2023-02-28T09:21:08;102295.63;;;20.33;43.03
48872;BME280;36154;51.674;7.824;2023-02-28T09:23:34;102295.63;;;20.33;43.37
48872;BME280;36154;51.674;7.824;2023-02-28T09:26:00;102292.19;;;20.30;43.17
48872;BME280;36154;51.674;7.824;2023-02-28T09:28:26;102300.81;;;20.29;42.91
48872;BME280;36154;51.674;7.824;2023-02-28T09:30:53;102289.59;;;20.29;42.78
48872;BME280;36154;51.674;7.824;2023-02-28T09:33:19;102297.38;;;20.27;42.81
48872;BME280;36154;51.674;7.824;2023-02-28T09:35:49;102303.41;;;20.26;42.94
48872;BME280;36154;51.674;7.824;2023-02-28T09:38:14;102294.78;;;20.24;42.96
48872;BME280;36154;51.674;7.824;2023-02-28T09:41:19;102305.97;;;20.26;43.22
48872;BME280;36154;51.674;7.824;2023-02-28T09:43:50;102303.44;;;20.23;40.42
48872;BME280;36154;51.674;7.824;2023-02-28T09:46:35;102300.81;;;20.08;36.72
48872;BME280;36154;51.674;7.824;2023-02-28T09:49:19;102302.53;;;19.87;35.10
48872;BME280;36154;51.674;7.824;2023-02-28T09:51:55;102299.09;;;19.67;33.87
48872;BME280;36154;51.674;7.824;2023-02-28T09:54:24;102306.78;;;19.51;33.84
48872;BME280;36154;51.674;7.824;2023-02-28T09:57:15;102307.59;;;19.41;31.69
48872;BME280;36154;51.674;7.824;2023-02-28T10:00:10;102297.25;;;19.35;34.55
48872;BME280;36154;51.674;7.824;2023-02-28T10:03:20;102299.00;;;19.42;36.31
48872;BME280;36154;51.674;7.824;2023-02-28T10:05:52;102292.13;;;19.50;37.35
48872;BME280;36154;51.674;7.824;2023-02-28T10:08:27;102292.13;;;19.56;38.03
48872;BME280;36154;51.674;7.824;2023-02-28T10:11:00;102293.91;;;19.67;38.58
48872;BME280;36154;51.674;7.824;2023-02-28T10:16:02;102286.16;;;19.76;39.44
48872;BME280;36154;51.674;7.824;2023-02-28T10:18:43;102287.91;;;19.85;39.62
48872;BME280;36154;51.674;7.824;2023-02-28T10:21:38;102274.94;;;19.89;40.02
48872;BME280;36154;51.674;7.824;2023-02-28T10:24:35;102290.47;;;19.96;40.04
48872;BME280;36154;51.674;7.824;2023-02-28T10:27:20;102289.59;;;20.00;40.41
48872;BME280;36154;51.674;7.824;2023-02-28T10:29:49;102285.31;;;20.02;40.57
48872;BME280;36154;51.674;7.824;2023-02-28T10:32:21;102291.34;;;20.07;40.78
48872;BME280;36154;51.674;7.824;2023-02-28T10:37:41;102282.72;;;20.11;40.90
48872;BME280;36154;51.674;7.824;2023-02-28T10:40:26;102277.53;;;20.16;40.74
48872;BME280;36154;51.674;7.824;2023-02-28T10:46:17;102281.84;;;20.18;41.33
48872;BME280;36154;51.674;7.824;2023-02-28T10:49:05;102280.13;;;20.20;41.24
48872;BME280;36154;51.674;7.824;2023-02-28T10:51:38;102284.41;;;20.20;41.28
48872;BME280;36154;51.674;7.824;2023-02-28T10:54:05;102290.47;;;20.23;41.00
48872;BME280;36154;51.674;7.824;2023-02-28T10:56:31;102281.84;;;20.24;41.27
48872;BME280;36154;51.674;7.824;2023-02-28T11:01:34;102280.09;;;20.26;41.38
48872;BME280;36154;51.674;7.824;2023-02-28T11:04:00;102274.06;;;20.27;41.44
48872;BME280;36154;51.674;7.824;2023-02-28T11:06:29;102274.91;;;20.26;41.17
48872;BME280;36154;51.674;7.824;2023-02-28T11:08:58;102276.66;;;20.27;41.24
48872;BME280;36154;51.674;7.824;2023-02-28T11:11:26;102285.28;;;20.26;41.43
48872;BME280;36154;51.674;7.824;2023-02-28T11:13:55;102281.84;;;20.27;41.41
48872;BME280;36154;51.674;7.824;2023-02-28T11:16:21;102277.50;;;20.25;41.57
48872;BME280;36154;51.674;7.824;2023-02-28T11:18:52;102284.44;;;20.24;41.64
48872;BME280;36154;51.674;7.824;2023-02-28T11:21:34;102281.84;;;20.24;41.66
48872;BME280;36154;51.674;7.824;2023-02-28T11:24:06;102283.56;;;20.22;41.60
48872;BME280;36154;51.674;7.824;2023-02-28T11:26:42;102265.44;;;20.21;41.67
48872;BME280;36154;51.674;7.824;2023-02-28T11:29:27;102274.94;;;20.20;41.70
48872;BME280;36154;51.674;7.824;2023-02-28T11:34:35;102261.13;;;20.18;41.72
48872;BME280;36154;51.674;7.824;2023-02-28T11:37:01;102259.41;;;20.17;41.57
48872;BME280;36154;51.674;7.824;2023-02-28T11:39:30;102259.41;;;20.19;41.64
48872;BME280;36154;51.674;7.824;2023-02-28T11:42:07;102259.41;;;20.20;41.59
48872;BME280;36154;51.674;7.824;2023-02-28T11:44:55;102257.69;;;20.19;41.56
48872;BME280;36154;51.674;7.824;2023-02-28T11:47:32;102261.13;;;20.18;41.52
48872;BME280;36154;51.674;7.824;2023-02-28T11:50:27;102255.09;;;20.18;41.72
48872;BME280;36154;51.674;7.824;2023-02-28T11:53:05;102255.09;;;20.16;41.57
48872;BME280;36154;51.674;7.824;2023-02-28T11:55:38;102251.66;;;20.17;41.49
48872;BME280;36154;51.674;7.824;2023-02-28T12:01:31;102259.41;;;20.14;41.62
48872;BME280;36154;51.674;7.824;2023-02-28T12:04:24;102249.91;;;20.13;41.65
48872;BME280;36154;51.674;7.824;2023-02-28T12:07:11;102246.47;;;20.11;41.61
48872;BME280;36154;51.674;7.824;2023-02-28T12:10:03;102252.53;;;20.10;41.61
48872;BME280;36154;51.674;7.824;2023-02-28T12:13:01;102244.78;;;20.10;41.60
48872;BME280;36154;51.674;7.824;2023-02-28T12:18:29;102230.09;;;20.09;41.61
48872;BME280;36154;51.674;7.824;2023-02-28T12:21:04;102237.00;;;20.10;41.54
48872;BME280;36154;51.674;7.824;2023-02-28T12:26:40;102224.94;;;20.12;41.34
48872;BME280;36154;51.674;7.824;2023-02-28T12:31:44;102230.09;;;20.12;41.43
48872;BME280;36154;51.674;7.824;2023-02-28T12:34:19;102231.81;;;20.13;41.32
48872;BME280;36154;51.674;7.824;2023-02-28T12:36:49;102214.56;;;20.15;41.19
48872;BME280;36154;51.674;7.824;2023-02-28T12:39:23;102214.53;;;20.18;40.99
48872;BME280;36154;51.674;7.824;2023-02-28T12:42:03;102209.38;;;20.18;40.76
48872;BME280;36154;51.674;7.824;2023-02-28T12:44:41;102213.69;;;20.19;40.96
48872;BME280;36154;51.674;7.824;2023-02-28T12:47:14;102210.25;;;20.19;41.04
48872;BME280;36154;51.674;7.824;2023-02-28T12:49:42;102209.38;;;20.21;41.12
48872;BME280;36154;51.674;7.824;2023-02-28T12:52:13;102206.78;;;20.21;41.18
48872;BME280;36154;51.674;7.824;2023-02-28T12:54:51;102205.94;;;20.21;40.93
48872;BME280;36154;51.674;7.824;2023-02-28T13:00:18;102195.56;;;20.22;40.93
48872;BME280;36154;51.674;7.824;2023-02-28T13:08:59;102186.94;;;20.23;41.11
48872;BME280;36154;51.674;7.824;2023-02-28T13:11:29;102179.19;;;20.22;41.14
48872;BME280;36154;51.674;7.824;2023-02-28T13:14:06;102174.88;;;20.24;41.00
48872;BME280;36154;51.674;7.824;2023-02-28T13:22:18;102162.78;;;20.24;41.03
48872;BME280;36154;51.674;7.824;2023-02-28T13:24:47;102144.66;;;20.21;40.90
48872;BME280;36154;51.674;7.824;2023-02-28T13:29:40;102155.00;;;20.27;41.00
48872;BME280;36154;51.674;7.824;2023-02-28T13:47:39;102141.16;;;20.36;40.93
48872;BME280;36154;51.674;7.824;2023-02-28T13:52:51;102147.22;;;20.34;41.18
48872;BME280;36154;51.674;7.824;2023-02-28T14:06:15;102145.53;;;20.23;41.19
48872;BME280;36154;51.674;7.824;2023-02-28T14:11:40;102145.50;;;20.25;41.20
48872;BME280;36154;51.674;7.824;2023-02-28T14:14:08;102148.09;;;20.25;41.17
48872;BME280;36154;51.674;7.824;2023-02-28T14:16:43;102148.97;;;20.25;41.32
48872;BME280;36154;51.674;7.824;2023-02-28T14:19:15;102146.41;;;20.24;41.17
48872;BME280;36154;51.674;7.824;2023-02-28T14:22:16;102141.22;;;20.22;41.17
48872;BME280;36154;51.674;7.824;2023-02-28T14:35:57;102133.44;;;20.24;41.21
48872;BME280;36154;51.674;7.824;2023-02-28T14:38:52;102136.88;;;20.24;41.26
48872;BME280;36154;51.674;7.824;2023-02-28T14:41:33;102135.16;;;20.26;41.22
48872;BME280;36154;51.674;7.824;2023-02-28T14:44:16;102125.69;;;20.27;40.81
48872;BME280;36154;51.674;7.824;2023-02-28T14:46:44;102129.13;;;20.29;41.03
48872;BME280;36154;51.674;7.824;2023-02-28T14:49:18;102127.38;;;20.28;40.95
48872;BME280;36154;51.674;7.824;2023-02-28T14:51:44;102129.13;;;20.30;41.08
48872;BME280;36154;51.674;7.824;2023-02-28T14:54:14;102122.19;;;20.31;40.94
48872;BME280;36154;51.674;7.824;2023-02-28T14:56:41;102123.94;;;20.30;40.69
48872;BME280;36154;51.674;7.824;2023-02-28T14:59:33;102123.94;;;20.32;40.88